Time,TemperatureF,DewpointF,PressureIn,WindDirection,WindDirectionDegrees,WindSpeedMPH,WindSpeedGustMPH,Humidity,HourlyPrecipIn,Conditions,Clouds,dailyrainin,SoftwareType,DateUTC
2013-03-09 00:02:00,25.0,20.0,-100.00,North,5,0.0,0.0,80,-99.99,,,-99.99,,2013-03-09 06:02:00,
2013-03-09 00:11:00,25.0,20.0,-100.00,North,5,0.0,0.0,80,-99.99,,,-99.99,,2013-03-09 06:11:00,
2013-03-09 00:42:00,26.0,21.0,-100.00,NW,325,0.0,1.0,81,-99.99,,,-99.99,,2013-03-09 06:42:00,
2013-03-09 00:52:00,26.0,21.0,-100.00,NW,325,0.0,1.0,81,-99.99,,,-99.99,,2013-03-09 06:52:00,
2013-03-09 01:01:00,26.0,21.0,-100.00,NW,325,0.0,1.0,81,-99.99,,,-99.99,,2013-03-09 07:01:00,
2013-03-09 01:11:00,26.0,21.0,-100.00,NW,325,0.0,1.0,81,-99.99,,,-99.99,,2013-03-09 07:11:00,
2013-03-09 01:21:00,26.0,21.0,-100.00,NW,325,0.0,1.0,81,-99.99,,,-99.99,,2013-03-09 07:21:00,
2013-03-09 01:42:00,27.0,22.0,-100.00,WNW,295,2.0,4.0,82,-99.99,,,-99.99,,2013-03-09 07:42:00,
2013-03-09 01:52:00,27.0,22.0,-100.00,WNW,295,2.0,4.0,82,-99.99,,,-99.99,,2013-03-09 07:52:00,
2013-03-09 02:01:00,27.0,22.0,-100.00,WNW,295,2.0,4.0,82,-99.99,,,-99.99,,2013-03-09 08:01:00,
2013-03-09 02:11:00,27.0,22.0,-100.00,WNW,295,2.0,4.0,82,-99.99,,,-99.99,,2013-03-09 08:11:00,
2013-03-09 02:21:00,27.0,22.0,-100.00,WNW,295,2.0,4.0,82,-99.99,,,-99.99,,2013-03-09 08:21:00,
2013-03-09 02:42:00,29.0,23.0,-100.00,North,5,0.0,4.0,78,-99.99,,,-99.99,,2013-03-09 08:42:00,
2013-03-09 02:52:00,29.0,23.0,-100.00,North,5,0.0,4.0,78,-99.99,,,-99.99,,2013-03-09 08:52:00,
2013-03-09 03:01:00,29.0,23.0,-100.00,North,5,0.0,4.0,78,-99.99,,,-99.99,,2013-03-09 09:01:00,
2013-03-09 03:12:00,29.0,23.0,-100.00,North,5,0.0,4.0,78,-99.99,,,-99.99,,2013-03-09 09:12:00,
2013-03-09 03:21:00,29.0,23.0,-100.00,North,5,0.0,4.0,78,-99.99,,,-99.99,,2013-03-09 09:21:00,
2013-03-09 03:42:00,31.0,22.0,-100.00,NNE,30,1.0,7.0,71,-99.99,,,-99.99,,2013-03-09 09:42:00,
2013-03-09 03:52:00,31.0,22.0,-100.00,NNE,30,1.0,7.0,71,-99.99,,,-99.99,,2013-03-09 09:52:00,
2013-03-09 04:01:00,31.0,22.0,-100.00,NNE,30,1.0,7.0,71,-99.99,,,-99.99,,2013-03-09 10:01:00,
2013-03-09 04:11:00,31.0,22.0,-100.00,NNE,30,1.0,7.0,71,-99.99,,,-99.99,,2013-03-09 10:11:00,
2013-03-09 04:21:00,31.0,22.0,-100.00,NNE,30,1.0,7.0,71,-99.99,,,-99.99,,2013-03-09 10:21:00,
2013-03-09 04:42:00,29.0,21.0,-100.00,NNW,345,1.0,3.0,72,-99.99,,,-99.99,,2013-03-09 10:42:00,
2013-03-09 04:52:00,29.0,21.0,-100.00,NNW,345,1.0,3.0,72,-99.99,,,-99.99,,2013-03-09 10:52:00,
2013-03-09 05:01:00,29.0,21.0,-100.00,NNW,345,1.0,3.0,72,-99.99,,,-99.99,,2013-03-09 11:01:00,
2013-03-09 05:11:00,29.0,21.0,-100.00,NNW,345,1.0,3.0,72,-99.99,,,-99.99,,2013-03-09 11:11:00,
2013-03-09 05:21:00,29.0,21.0,-100.00,NNW,345,1.0,3.0,72,-99.99,,,-99.99,,2013-03-09 11:21:00,
2013-03-09 05:42:00,29.0,21.0,-100.00,North,5,0.0,2.0,74,-99.99,,,-99.99,,2013-03-09 11:42:00,
2013-03-09 05:52:00,29.0,21.0,-100.00,North,5,0.0,2.0,74,-99.99,,,-99.99,,2013-03-09 11:52:00,
2013-03-09 06:01:00,29.0,21.0,-100.00,North,5,0.0,2.0,74,-99.99,,,-99.99,,2013-03-09 12:01:00,
2013-03-09 06:11:00,29.0,21.0,-100.00,North,5,0.0,2.0,74,-99.99,,,-99.99,,2013-03-09 12:11:00,
2013-03-09 06:21:00,29.0,21.0,-100.00,North,5,0.0,2.0,74,-99.99,,,-99.99,,2013-03-09 12:21:00,
2013-03-09 06:42:00,29.0,22.0,-100.00,NW,315,0.0,6.0,75,-99.99,,,-99.99,,2013-03-09 12:42:00,
2013-03-09 06:52:00,29.0,22.0,-100.00,NW,315,0.0,6.0,75,-99.99,,,-99.99,,2013-03-09 12:52:00,
2013-03-09 07:02:00,29.0,22.0,-100.00,NW,315,0.0,6.0,75,-99.99,,,-99.99,,2013-03-09 13:02:00,
2013-03-09 07:11:00,29.0,22.0,-100.00,NW,315,0.0,6.0,75,-99.99,,,-99.99,,2013-03-09 13:11:00,
2013-03-09 07:21:00,29.0,22.0,-100.00,NW,315,0.0,6.0,75,-99.99,,,-99.99,,2013-03-09 13:21:00,
2013-03-09 07:52:00,31.0,24.0,-100.00,North,0,1.0,4.0,74,-99.99,,,-99.99,,2013-03-09 13:52:00,
2013-03-09 08:01:00,31.0,24.0,-100.00,North,0,1.0,4.0,74,-99.99,,,-99.99,,2013-03-09 14:01:00,
2013-03-09 08:11:00,31.0,24.0,-100.00,North,0,1.0,4.0,74,-99.99,,,-99.99,,2013-03-09 14:11:00,
2013-03-09 08:21:00,31.0,24.0,-100.00,North,0,1.0,4.0,74,-99.99,,,-99.99,,2013-03-09 14:21:00,
2013-03-09 08:42:00,33.0,24.0,-100.00,NNW,345,1.0,5.0,68,-99.99,,,-99.99,,2013-03-09 14:42:00,
2013-03-09 08:52:00,33.0,24.0,-100.00,NNW,345,1.0,5.0,68,-99.99,,,-99.99,,2013-03-09 14:52:00,
2013-03-09 09:02:00,33.0,24.0,-100.00,NNW,345,1.0,5.0,68,-99.99,,,-99.99,,2013-03-09 15:02:00,
2013-03-09 09:11:00,33.0,24.0,-100.00,NNW,345,1.0,5.0,68,-99.99,,,-99.99,,2013-03-09 15:11:00,
2013-03-09 09:22:00,33.0,24.0,-100.00,NNW,345,1.0,5.0,68,-99.99,,,-99.99,,2013-03-09 15:22:00,
2013-03-09 09:42:00,32.0,24.0,-100.00,NNE,25,1.0,7.0,72,-99.99,,,-99.99,,2013-03-09 15:42:00,
2013-03-09 09:52:00,32.0,24.0,-100.00,NNE,25,1.0,7.0,72,-99.99,,,-99.99,,2013-03-09 15:52:00,
2013-03-09 10:01:00,32.0,24.0,-100.00,NNE,25,1.0,7.0,72,-99.99,,,-99.99,,2013-03-09 16:01:00,
2013-03-09 10:11:00,32.0,24.0,-100.00,NNE,25,1.0,7.0,72,-99.99,,,-99.99,,2013-03-09 16:11:00,
2013-03-09 10:21:00,32.0,24.0,-100.00,NNE,25,1.0,7.0,72,-99.99,,,-99.99,,2013-03-09 16:21:00,
2013-03-09 10:42:00,33.0,28.0,-100.00,NNE,15,1.0,5.0,82,-99.99,,,-99.99,,2013-03-09 16:42:00,
2013-03-09 10:52:00,33.0,28.0,-100.00,NNE,15,1.0,5.0,82,-99.99,,,-99.99,,2013-03-09 16:52:00,
2013-03-09 11:01:00,33.0,28.0,-100.00,NNE,15,1.0,5.0,82,-99.99,,,-99.99,,2013-03-09 17:01:00,
2013-03-09 11:11:00,33.0,28.0,-100.00,NNE,15,1.0,5.0,82,-99.99,,,-99.99,,2013-03-09 17:11:00,
2013-03-09 11:22:00,33.0,28.0,-100.00,NNE,15,1.0,5.0,82,-99.99,,,-99.99,,2013-03-09 17:22:00,
2013-03-09 11:42:00,35.0,30.0,-100.00,North,10,1.0,7.0,82,-99.99,,,-99.99,,2013-03-09 17:42:00,
2013-03-09 11:52:00,35.0,30.0,-100.00,North,10,1.0,7.0,82,-99.99,,,-99.99,,2013-03-09 17:52:00,
2013-03-09 12:02:00,35.0,30.0,-100.00,North,10,1.0,7.0,82,-99.99,,,-99.99,,2013-03-09 18:02:00,
2013-03-09 12:11:00,35.0,30.0,-100.00,North,10,1.0,7.0,82,-99.99,,,-99.99,,2013-03-09 18:11:00,
2013-03-09 12:21:00,35.0,30.0,-100.00,North,10,1.0,7.0,82,-99.99,,,-99.99,,2013-03-09 18:21:00,
2013-03-09 12:42:00,38.0,30.0,-100.00,NNE,25,0.0,6.0,73,-99.99,,,-99.99,,2013-03-09 18:42:00,
2013-03-09 12:52:00,38.0,30.0,-100.00,NNE,25,0.0,6.0,73,-99.99,,,-99.99,,2013-03-09 18:52:00,
2013-03-09 13:01:00,38.0,30.0,-100.00,NNE,25,0.0,6.0,73,-99.99,,,-99.99,,2013-03-09 19:01:00,
2013-03-09 13:11:00,38.0,30.0,-100.00,NNE,25,0.0,6.0,73,-99.99,,,-99.99,,2013-03-09 19:11:00,
2013-03-09 13:22:00,38.0,30.0,-100.00,NNE,25,0.0,6.0,73,-99.99,,,-99.99,,2013-03-09 19:22:00,
2013-03-09 13:52:00,39.0,28.0,-100.00,North,350,1.0,4.0,65,-99.99,,,-99.99,,2013-03-09 19:52:00,
2013-03-09 14:01:00,39.0,28.0,-100.00,North,350,1.0,4.0,65,-99.99,,,-99.99,,2013-03-09 20:01:00,
2013-03-09 14:11:00,39.0,28.0,-100.00,North,350,1.0,4.0,65,-99.99,,,-99.99,,2013-03-09 20:11:00,
2013-03-09 14:21:00,39.0,28.0,-100.00,North,350,1.0,4.0,65,-99.99,,,-99.99,,2013-03-09 20:21:00,
2013-03-09 14:52:00,37.0,27.0,-100.00,North,350,1.0,9.0,66,-99.99,,,-99.99,,2013-03-09 20:52:00,
2013-03-09 15:02:00,37.0,27.0,-100.00,North,350,1.0,9.0,66,-99.99,,,-99.99,,2013-03-09 21:02:00,
2013-03-09 15:12:00,37.0,27.0,-100.00,North,350,1.0,9.0,66,-99.99,,,-99.99,,2013-03-09 21:12:00,
2013-03-09 15:22:00,37.0,27.0,-100.00,North,350,1.0,9.0,66,-99.99,,,-99.99,,2013-03-09 21:22:00,
2013-03-09 15:42:00,36.0,27.0,-100.00,NNW,345,1.0,6.0,70,-99.99,,,-99.99,,2013-03-09 21:42:00,
2013-03-09 15:52:00,36.0,27.0,-100.00,NNW,345,1.0,6.0,70,-99.99,,,-99.99,,2013-03-09 21:52:00,
2013-03-09 16:01:00,36.0,27.0,-100.00,NNW,345,1.0,6.0,70,-99.99,,,-99.99,,2013-03-09 22:01:00,
2013-03-09 16:11:00,36.0,27.0,-100.00,NNW,345,1.0,6.0,70,-99.99,,,-99.99,,2013-03-09 22:11:00,
2013-03-09 16:21:00,36.0,27.0,-100.00,NNW,345,1.0,6.0,70,-99.99,,,-99.99,,2013-03-09 22:21:00,
2013-03-09 16:52:00,35.0,30.0,-100.00,West,275,1.0,7.0,83,-99.99,,,-99.99,,2013-03-09 22:52:00,
2013-03-09 17:01:00,35.0,30.0,-100.00,West,275,1.0,7.0,83,-99.99,,,-99.99,,2013-03-09 23:01:00,
2013-03-09 17:11:00,35.0,30.0,-100.00,West,275,1.0,7.0,83,-99.99,,,-99.99,,2013-03-09 23:11:00,
2013-03-09 17:21:00,35.0,30.0,-100.00,West,275,1.0,7.0,83,-99.99,,,-99.99,,2013-03-09 23:21:00,
2013-03-09 17:52:00,34.0,31.0,-100.00,North,10,1.0,9.0,88,-99.99,,,-99.99,,2013-03-09 23:52:00,
2013-03-09 18:01:00,34.0,31.0,-100.00,North,10,1.0,9.0,88,-99.99,,,-99.99,,2013-03-10 00:01:00,
2013-03-09 18:11:00,34.0,31.0,-100.00,North,10,1.0,9.0,88,-99.99,,,-99.99,,2013-03-10 00:11:00,
2013-03-09 18:22:00,34.0,31.0,-100.00,North,10,1.0,9.0,88,-99.99,,,-99.99,,2013-03-10 00:22:00,
2013-03-09 18:52:00,34.0,32.0,-100.00,NNE,15,1.0,4.0,89,-99.99,,,-99.99,,2013-03-10 00:52:00,
2013-03-09 19:01:00,34.0,32.0,-100.00,NNE,15,1.0,4.0,89,-99.99,,,-99.99,,2013-03-10 01:01:00,
2013-03-09 19:11:00,34.0,32.0,-100.00,NNE,15,1.0,4.0,89,-99.99,,,-99.99,,2013-03-10 01:11:00,
2013-03-09 19:21:00,34.0,32.0,-100.00,NNE,15,1.0,4.0,89,-99.99,,,-99.99,,2013-03-10 01:21:00,
2013-03-09 19:42:00,35.0,32.0,-100.00,NNE,15,1.0,6.0,89,-99.99,,,-99.99,,2013-03-10 01:42:00,
2013-03-09 19:52:00,35.0,32.0,-100.00,NNE,15,1.0,6.0,89,-99.99,,,-99.99,,2013-03-10 01:52:00,
2013-03-09 20:01:00,35.0,32.0,-100.00,NNE,15,1.0,6.0,89,-99.99,,,-99.99,,2013-03-10 02:01:00,
2013-03-09 20:11:00,35.0,32.0,-100.00,NNE,15,1.0,6.0,89,-99.99,,,-99.99,,2013-03-10 02:11:00,
2013-03-09 20:21:00,35.0,32.0,-100.00,North,10,1.0,6.0,89,-99.99,,,-99.99,,2013-03-10 02:21:00,
2013-03-09 20:22:00,35.0,32.0,-100.00,NNE,15,1.0,6.0,89,-99.99,,,-99.99,,2013-03-10 02:22:00,
2013-03-09 20:42:00,35.0,32.0,-100.00,North,10,1.0,6.0,89,-99.99,,,-99.99,,2013-03-10 02:42:00,
2013-03-09 20:52:00,35.0,32.0,-100.00,North,10,1.0,6.0,89,-99.99,,,-99.99,,2013-03-10 02:52:00,
2013-03-09 21:02:00,35.0,32.0,-100.00,North,10,1.0,6.0,89,-99.99,,,-99.99,,2013-03-10 03:02:00,
2013-03-09 21:11:00,35.0,32.0,-100.00,North,10,1.0,6.0,89,-99.99,,,-99.99,,2013-03-10 03:11:00,
2013-03-09 21:42:00,35.0,32.0,-100.00,NNE,15,1.0,4.0,89,-99.99,,,-99.99,,2013-03-10 03:42:00,
2013-03-09 21:52:00,35.0,32.0,-100.00,NNE,15,1.0,4.0,89,-99.99,,,-99.99,,2013-03-10 03:52:00,
2013-03-09 22:01:00,35.0,32.0,-100.00,NNE,15,1.0,4.0,89,-99.99,,,-99.99,,2013-03-10 04:01:00,
2013-03-09 22:11:00,35.0,32.0,-100.00,NNE,15,1.0,4.0,89,-99.99,,,-99.99,,2013-03-10 04:11:00,
2013-03-09 22:21:00,35.0,32.0,-100.00,NNE,15,1.0,4.0,89,-99.99,,,-99.99,,2013-03-10 04:21:00,
2013-03-09 22:42:00,35.0,32.0,-100.00,NNE,25,1.0,4.0,89,-99.99,,,-99.99,,2013-03-10 04:42:00,
2013-03-09 22:52:00,35.0,32.0,-100.00,NNE,25,1.0,4.0,89,-99.99,,,-99.99,,2013-03-10 04:52:00,
2013-03-09 23:01:00,35.0,32.0,-100.00,NNE,25,1.0,4.0,89,-99.99,,,-99.99,,2013-03-10 05:01:00,
2013-03-09 23:11:00,35.0,32.0,-100.00,NNE,25,1.0,4.0,89,-99.99,,,-99.99,,2013-03-10 05:11:00,
2013-03-09 23:22:00,35.0,32.0,-100.00,NNE,25,1.0,4.0,89,-99.99,,,-99.99,,2013-03-10 05:22:00,
2013-03-09 23:52:00,35.0,32.0,-100.00,NE,35,0.0,2.0,89,-99.99,,,-99.99,,2013-03-10 05:52:00,